createdAt,value
2019-03-30T00:00:03.600Z,60.63
2019-03-30T00:02:35.405Z,57.23
2019-03-30T00:05:02.302Z,57.45
2019-03-30T00:07:31.236Z,59.03
2019-03-30T00:09:59.775Z,57.05
2019-03-30T00:12:28.257Z,60.67
2019-03-30T00:14:56.791Z,58.25
2019-03-30T00:17:25.547Z,59.13
2019-03-30T00:19:54.233Z,55.45
2019-03-30T00:22:22.736Z,56.42
2019-03-30T00:24:51.426Z,57.95
2019-03-30T00:27:19.912Z,59.18
2019-03-30T00:29:48.795Z,58.28
2019-03-30T00:32:17.264Z,59.77
2019-03-30T00:34:45.807Z,57.35
2019-03-30T00:37:14.448Z,56.65
2019-03-30T00:39:42.943Z,57.62
2019-03-30T00:42:11.774Z,61.50
2019-03-30T00:48:09.390Z,58.17
2019-03-30T00:50:37.958Z,58.83
2019-03-30T00:53:06.426Z,59.75
2019-03-30T00:55:35.465Z,57.40
2019-03-30T00:58:03.949Z,59.77
2019-03-30T01:00:32.499Z,57.20
2019-03-30T01:03:01.538Z,60.25
2019-03-30T01:05:30.018Z,60.90
2019-03-30T01:07:58.658Z,62.20
2019-03-30T01:10:27.458Z,64.20
2019-03-30T01:12:56.178Z,62.45
2019-03-30T01:15:24.893Z,60.23
2019-03-30T01:17:53.547Z,59.88
2019-03-30T01:20:22.032Z,61.77
2019-03-30T01:22:50.517Z,61.15
2019-03-30T01:25:19.026Z,63.85
2019-03-30T01:27:47.504Z,62.93
2019-03-30T01:30:22.907Z,64.72
2019-03-30T01:32:47.512Z,57.45
2019-03-30T01:35:16.020Z,56.73
2019-03-30T01:37:44.649Z,59.35
2019-03-30T01:40:13.367Z,56.80
2019-03-30T01:42:42.013Z,55.10
2019-03-30T01:45:10.697Z,53.80
2019-03-30T01:47:39.405Z,55.55
2019-03-30T01:50:17.064Z,56.60
2019-03-30T01:52:40.451Z,55.98
2019-03-30T01:55:09.482Z,56.88
2019-03-30T01:57:37.957Z,56.35
2019-03-30T02:00:10.911Z,60.15
2019-03-30T02:02:39.602Z,57.03
2019-03-30T02:05:08.315Z,58.85
2019-03-30T02:07:36.803Z,58.25
2019-03-30T02:10:06.522Z,52.53
2019-03-30T02:12:34.994Z,54.98
2019-03-30T02:15:04.889Z,56.98
2019-03-30T02:17:33.727Z,53.13
2019-03-30T02:20:03.336Z,54.40
2019-03-30T02:22:31.822Z,53.75
2019-03-30T02:25:00.384Z,53.38
2019-03-30T02:27:28.854Z,52.93
2019-03-30T02:29:57.326Z,54.35
2019-03-30T02:32:25.911Z,53.78
2019-03-30T02:34:54.398Z,54.33
2019-03-30T02:37:22.971Z,54.67
2019-03-30T02:39:51.861Z,55.40
2019-03-30T02:42:20.616Z,60.45
2019-03-30T02:44:49.125Z,56.75
2019-03-30T02:47:17.853Z,53.95
2019-03-30T02:49:46.403Z,54.80
2019-03-30T02:52:15.017Z,53.60
2019-03-30T02:54:43.791Z,52.83
2019-03-30T02:57:12.455Z,55.25
2019-03-30T02:59:41.058Z,52.88
2019-03-30T03:02:10.417Z,55.40
2019-03-30T03:04:39.231Z,55.55
2019-03-30T03:07:07.730Z,53.65
2019-03-30T03:09:36.440Z,52.67
2019-03-30T03:12:04.950Z,54.38
2019-03-30T03:14:33.461Z,55.03
2019-03-30T03:17:02.151Z,57.08
2019-03-30T03:19:30.609Z,57.25
2019-03-30T03:21:59.400Z,56.28
2019-03-30T03:24:28.206Z,54.95
2019-03-30T03:26:56.692Z,54.38
2019-03-30T03:29:25.167Z,55.25
2019-03-30T03:31:53.675Z,53.83
2019-03-30T03:34:22.149Z,52.90
2019-03-30T03:36:50.677Z,52.38
2019-03-30T03:39:19.182Z,53.05
2019-03-30T03:41:47.752Z,54.85
2019-03-30T03:44:16.452Z,54.75
2019-03-30T03:46:44.974Z,53.70
2019-03-30T03:49:13.452Z,54.42
2019-03-30T03:51:42.161Z,53.05
2019-03-30T03:54:11.222Z,54.25
2019-03-30T03:56:40.768Z,52.98
2019-03-30T03:59:10.834Z,53.15
2019-03-30T04:01:41.616Z,54.15
2019-03-30T04:04:12.616Z,53.50
2019-03-30T04:06:43.642Z,53.08
2019-03-30T04:09:15.534Z,52.67
2019-03-30T04:11:45.705Z,51.95
2019-03-30T04:14:16.329Z,53.28
2019-03-30T04:16:45.616Z,55.55
2019-03-30T04:19:14.091Z,58.00
2019-03-30T04:21:44.635Z,57.38
2019-03-30T04:24:13.091Z,54.90
2019-03-30T04:26:41.618Z,57.08
2019-03-30T04:29:10.296Z,55.45
2019-03-30T04:31:39.041Z,55.30
2019-03-30T04:34:07.512Z,52.58
2019-03-30T04:36:36.051Z,54.00
2019-03-30T04:39:05.613Z,50.33
2019-03-30T04:41:34.089Z,52.38
2019-03-30T04:44:02.631Z,56.20
2019-03-30T04:46:31.142Z,53.05
2019-03-30T04:48:59.620Z,52.65
2019-03-30T04:51:28.099Z,54.67
2019-03-30T04:53:57.137Z,54.00
2019-03-30T04:56:25.640Z,56.92
2019-03-30T04:58:54.127Z,54.10
2019-03-30T05:01:22.691Z,52.95
2019-03-30T05:03:51.158Z,56.20
2019-03-30T05:06:19.645Z,58.55
2019-03-30T05:08:48.227Z,60.17
2019-03-30T05:11:17.021Z,59.83
2019-03-30T05:13:45.529Z,55.98
2019-03-30T05:16:14.114Z,64.58
2019-03-30T05:18:42.610Z,55.10
2019-03-30T05:21:11.124Z,55.88
2019-03-30T05:23:39.894Z,53.28
2019-03-30T05:26:08.373Z,55.70
2019-03-30T05:28:36.851Z,53.85
2019-03-30T05:31:05.364Z,53.78
2019-03-30T05:33:34.198Z,53.85
2019-03-30T05:36:02.682Z,52.30
2019-03-30T05:38:31.303Z,52.53
2019-03-30T05:40:59.778Z,57.33
2019-03-30T05:43:28.293Z,53.20
2019-03-30T05:45:56.788Z,53.55
2019-03-30T05:48:25.300Z,53.58
2019-03-30T05:50:53.784Z,51.58
2019-03-30T05:53:22.296Z,57.90
2019-03-30T05:55:50.767Z,55.90
2019-03-30T05:58:19.258Z,53.65
2019-03-30T06:00:48.361Z,56.48
2019-03-30T06:03:16.842Z,53.10
2019-03-30T06:05:45.306Z,54.33
2019-03-30T06:08:15.331Z,57.98
2019-03-30T06:10:43.842Z,57.95
2019-03-30T06:13:12.322Z,56.50
2019-03-30T06:15:41.288Z,59.30
2019-03-30T06:18:11.404Z,59.30
2019-03-30T06:20:40.089Z,54.85
2019-03-30T06:23:15.759Z,54.08
2019-03-30T06:25:44.363Z,58.02
2019-03-30T06:28:13.827Z,56.28
2019-03-30T06:30:43.331Z,54.75
2019-03-30T06:33:13.766Z,52.65
2019-03-30T06:35:46.440Z,52.93
2019-03-30T06:38:16.274Z,50.65
2019-03-30T06:40:45.830Z,47.73
2019-03-30T06:43:15.374Z,48.28
2019-03-30T06:45:45.692Z,46.28
2019-03-30T06:48:14.647Z,44.93
2019-03-30T06:50:43.426Z,44.15
2019-03-30T06:53:12.549Z,42.85
2019-03-30T06:55:41.272Z,40.90
2019-03-30T06:58:10.213Z,41.28
2019-03-30T07:00:39.610Z,39.92
2019-03-30T07:03:09.036Z,40.55
2019-03-30T07:05:43.144Z,38.70
2019-03-30T07:08:17.040Z,38.05
2019-03-30T07:10:46.946Z,36.75
2019-03-30T07:13:15.817Z,37.13
2019-03-30T07:15:49.250Z,37.25
2019-03-30T07:18:18.742Z,34.13
2019-03-30T07:20:47.656Z,36.08
2019-03-30T07:23:16.373Z,34.48
2019-03-30T07:25:44.871Z,33.63
2019-03-30T07:28:13.337Z,33.28
2019-03-30T07:30:41.956Z,33.98
2019-03-30T07:33:10.435Z,33.18
2019-03-30T07:35:38.982Z,32.35
2019-03-30T07:38:07.668Z,33.08
2019-03-30T07:40:36.135Z,30.75
2019-03-30T07:43:04.732Z,29.02
2019-03-30T07:45:34.078Z,29.15
2019-03-30T07:48:02.590Z,26.75
2019-03-30T07:50:31.147Z,25.08
2019-03-30T07:52:59.682Z,25.20
2019-03-30T07:55:28.158Z,25.57
2019-03-30T07:57:57.676Z,24.20
2019-03-30T08:00:30.708Z,23.20
2019-03-30T08:02:57.345Z,22.53
2019-03-30T08:05:25.876Z,21.75
2019-03-30T08:07:54.589Z,22.00
2019-03-30T08:10:23.419Z,22.52
2019-03-30T08:12:51.893Z,21.40
2019-03-30T08:15:21.127Z,22.25
2019-03-30T08:17:49.768Z,22.77
2019-03-30T08:20:18.400Z,21.42
2019-03-30T08:22:47.124Z,22.95
2019-03-30T08:25:15.605Z,21.70
2019-03-30T08:27:44.312Z,22.60
2019-03-30T08:30:13.393Z,23.20
2019-03-30T08:32:41.871Z,22.45
2019-03-30T08:35:11.679Z,21.40
2019-03-30T08:37:40.610Z,22.20
2019-03-30T08:40:09.512Z,22.70
2019-03-30T08:42:41.009Z,22.95
2019-03-30T08:45:10.219Z,22.77
2019-03-30T08:47:38.768Z,23.20
2019-03-30T08:50:09.145Z,21.62
2019-03-30T08:52:37.707Z,22.55
2019-03-30T08:55:08.233Z,22.20
2019-03-30T08:57:37.546Z,22.52
2019-03-30T09:00:07.416Z,23.05
2019-03-30T09:02:35.896Z,23.12
2019-03-30T09:05:06.431Z,23.00
2019-03-30T09:07:34.988Z,21.68
2019-03-30T09:10:05.657Z,22.30
2019-03-30T09:12:34.312Z,22.55
2019-03-30T09:15:03.051Z,22.77
2019-03-30T09:17:31.534Z,20.90
2019-03-30T09:20:00.016Z,20.57
2019-03-30T09:22:29.726Z,20.68
2019-03-30T09:24:58.268Z,21.00
2019-03-30T09:27:26.775Z,20.80
2019-03-30T09:29:55.281Z,21.15
2019-03-30T09:32:23.769Z,20.68
2019-03-30T09:34:52.307Z,20.60
2019-03-30T09:37:20.915Z,20.40
2019-03-30T09:39:49.515Z,20.95
2019-03-30T09:42:18.135Z,20.52
2019-03-30T09:44:46.873Z,19.45
2019-03-30T09:47:15.471Z,20.95
2019-03-30T09:49:44.044Z,21.30
2019-03-30T09:52:12.620Z,20.80
2019-03-30T09:54:41.105Z,21.30
2019-03-30T09:57:09.856Z,21.20
2019-03-30T09:59:38.495Z,20.82
2019-03-30T10:02:07.006Z,22.37
2019-03-30T10:04:35.678Z,20.52
2019-03-30T10:07:04.719Z,20.62
2019-03-30T10:09:33.326Z,21.15
2019-03-30T10:12:02.193Z,21.80
2019-03-30T10:14:30.697Z,21.73
2019-03-30T10:16:59.436Z,21.50
2019-03-30T10:19:27.996Z,22.30
2019-03-30T10:21:56.636Z,23.07
2019-03-30T10:24:37.525Z,21.82
2019-03-30T10:26:55.691Z,21.33
2019-03-30T10:29:24.338Z,20.05
2019-03-30T10:31:53.402Z,21.02
2019-03-30T10:34:22.117Z,21.05
2019-03-30T10:36:51.169Z,20.80
2019-03-30T10:39:19.656Z,21.77
2019-03-30T10:41:48.149Z,22.07
2019-03-30T10:44:16.730Z,22.10
2019-03-30T10:46:45.175Z,22.25
2019-03-30T10:49:14.122Z,22.25
2019-03-30T10:51:42.719Z,20.70
2019-03-30T10:54:11.219Z,21.10
2019-03-30T10:56:39.819Z,22.40
2019-03-30T10:59:08.498Z,22.37
2019-03-30T11:01:36.993Z,21.52
2019-03-30T11:04:05.569Z,22.30
2019-03-30T11:06:35.477Z,22.20
2019-03-30T11:09:04.926Z,23.25
2019-03-30T11:11:33.404Z,22.75
2019-03-30T11:14:02.024Z,23.32
2019-03-30T11:16:30.508Z,23.25
2019-03-30T11:18:59.177Z,24.82
2019-03-30T11:21:27.680Z,24.47
2019-03-30T11:23:59.471Z,25.10
2019-03-30T11:26:28.079Z,25.48
2019-03-30T11:28:56.617Z,24.15
2019-03-30T11:31:25.222Z,24.80
2019-03-30T11:33:53.719Z,24.40
2019-03-30T11:36:22.319Z,24.67
2019-03-30T11:38:51.164Z,24.90
2019-03-30T11:41:19.998Z,23.35
2019-03-30T11:43:48.538Z,25.10
2019-03-30T11:46:17.478Z,22.95
2019-03-30T11:48:45.959Z,23.73
2019-03-30T11:51:14.774Z,22.80
2019-03-30T11:53:43.345Z,22.93
2019-03-30T11:56:11.829Z,22.85
2019-03-30T11:58:40.343Z,23.12
2019-03-30T12:01:08.831Z,23.62
2019-03-30T12:03:37.320Z,22.27
2019-03-30T12:06:06.151Z,21.75
2019-03-30T12:08:34.791Z,22.25
2019-03-30T12:11:03.869Z,21.27
2019-03-30T12:13:32.387Z,21.95
2019-03-30T12:16:00.887Z,20.12
2019-03-30T12:18:29.927Z,20.57
2019-03-30T12:20:59.226Z,18.05
2019-03-30T12:23:27.950Z,19.17
2019-03-30T12:25:56.433Z,17.10
2019-03-30T12:28:25.113Z,18.70
2019-03-30T12:30:54.008Z,16.37
2019-03-30T12:33:22.511Z,17.12
2019-03-30T12:35:51.206Z,16.42
2019-03-30T12:38:19.797Z,15.88
2019-03-30T12:40:48.411Z,17.55
2019-03-30T12:43:17.111Z,13.83
2019-03-30T12:45:45.713Z,16.35
2019-03-30T12:48:14.205Z,14.28
2019-03-30T12:50:43.125Z,14.78
2019-03-30T12:53:11.692Z,14.05
2019-03-30T12:55:49.169Z,14.47
2019-03-30T12:58:11.803Z,17.52
2019-03-30T13:00:40.418Z,14.20
2019-03-30T13:03:08.978Z,15.18
2019-03-30T13:05:37.636Z,14.23
2019-03-30T13:08:06.371Z,14.38
2019-03-30T13:10:35.006Z,14.33
2019-03-30T13:13:03.816Z,12.47
2019-03-30T13:15:32.488Z,12.37
2019-03-30T13:18:01.074Z,13.13
2019-03-30T13:20:29.953Z,12.70
2019-03-30T13:22:58.442Z,12.93
2019-03-30T13:25:26.929Z,13.28
2019-03-30T13:27:55.602Z,13.98
2019-03-30T13:33:12.038Z,11.20
2019-03-30T13:35:40.527Z,11.40
2019-03-30T13:38:09.153Z,11.12
2019-03-30T13:40:39.272Z,11.57
2019-03-30T13:43:07.796Z,11.05
2019-03-30T13:45:36.421Z,11.35
2019-03-30T13:48:04.952Z,11.88
2019-03-30T13:50:33.426Z,11.90
2019-03-30T13:53:01.937Z,11.60
2019-03-30T13:55:30.662Z,12.45
2019-03-30T13:57:59.511Z,11.95
2019-03-30T14:00:28.041Z,12.07
2019-03-30T14:02:56.899Z,11.78
2019-03-30T14:05:25.702Z,11.75
2019-03-30T14:07:54.359Z,11.95
2019-03-30T14:10:23.566Z,11.25
2019-03-30T14:12:52.054Z,11.03
2019-03-30T14:15:20.529Z,11.20
2019-03-30T14:17:49.208Z,10.80
2019-03-30T14:20:17.690Z,11.40
2019-03-30T14:22:46.746Z,11.25
2019-03-30T14:25:15.262Z,10.72
2019-03-30T14:27:43.861Z,11.15
2019-03-30T14:30:13.105Z,10.10
2019-03-30T14:32:42.161Z,11.05
2019-03-30T14:35:10.920Z,12.28
2019-03-30T14:37:39.420Z,12.25
2019-03-30T14:40:09.709Z,11.30
2019-03-30T14:42:38.275Z,11.00
2019-03-30T14:45:07.890Z,11.43
2019-03-30T14:47:36.437Z,11.95
2019-03-30T14:50:07.979Z,11.95
2019-03-30T14:52:37.109Z,13.13
2019-03-30T14:55:08.999Z,11.48
2019-03-30T14:57:37.490Z,12.33
2019-03-30T15:00:09.800Z,13.18
2019-03-30T15:02:38.556Z,12.58
2019-03-30T15:05:08.744Z,11.30
2019-03-30T15:07:37.581Z,11.78
2019-03-30T15:10:08.382Z,10.68
2019-03-30T15:12:37.731Z,11.90
2019-03-30T15:15:08.451Z,11.85
2019-03-30T15:17:40.748Z,13.05
2019-03-30T15:20:12.807Z,13.83
2019-03-30T15:22:41.547Z,12.90
2019-03-30T15:25:11.764Z,13.25
2019-03-30T15:27:40.363Z,12.73
2019-03-30T15:30:09.605Z,12.00
2019-03-30T15:32:38.336Z,12.70
2019-03-30T15:35:07.946Z,12.58
2019-03-30T15:37:36.431Z,12.93
2019-03-30T15:40:07.214Z,11.55
2019-03-30T15:42:35.967Z,11.85
2019-03-30T15:45:07.094Z,10.50
2019-03-30T15:47:35.981Z,10.63
2019-03-30T15:50:05.894Z,10.93
2019-03-30T15:52:34.624Z,11.03
2019-03-30T15:55:04.342Z,10.30
2019-03-30T15:57:32.812Z,10.25
2019-03-30T16:00:01.290Z,11.22
2019-03-30T16:02:29.846Z,11.88
2019-03-30T16:04:58.412Z,10.68
2019-03-30T16:07:26.889Z,9.75
2019-03-30T16:09:55.630Z,10.32
2019-03-30T16:12:25.456Z,10.53
2019-03-30T16:14:54.240Z,9.73
2019-03-30T16:17:22.836Z,10.50
2019-03-30T16:19:51.323Z,10.00
2019-03-30T16:22:19.965Z,10.23
2019-03-30T16:24:48.472Z,10.25
2019-03-30T16:27:28.205Z,9.30
2019-03-30T16:29:47.332Z,10.35
2019-03-30T16:32:16.222Z,10.43
2019-03-30T16:34:46.921Z,10.23
2019-03-30T16:37:15.466Z,10.58
2019-03-30T16:39:44.216Z,10.05
2019-03-30T16:42:12.693Z,10.40
2019-03-30T16:44:41.184Z,9.38
2019-03-30T16:47:09.986Z,10.38
2019-03-30T16:49:38.474Z,9.75
2019-03-30T16:52:07.129Z,9.58
2019-03-30T16:54:35.615Z,9.80
2019-03-30T16:57:05.290Z,9.80
2019-03-30T16:59:33.789Z,10.70
2019-03-30T17:02:02.831Z,10.03
2019-03-30T17:04:31.491Z,9.88
2019-03-30T17:07:00.101Z,10.45
2019-03-30T17:09:28.600Z,10.40
2019-03-30T17:11:57.067Z,11.38
2019-03-30T17:14:25.581Z,17.00
2019-03-30T17:16:54.107Z,27.42
2019-03-30T17:19:22.822Z,31.02
2019-03-30T17:21:51.303Z,34.13
2019-03-30T17:24:20.013Z,35.92
2019-03-30T17:26:48.509Z,37.93
2019-03-30T17:29:17.006Z,39.25
2019-03-30T17:31:45.570Z,41.53
2019-03-30T17:34:14.219Z,45.98
2019-03-30T17:36:42.743Z,44.30
2019-03-30T17:39:12.591Z,40.52
2019-03-30T17:41:41.174Z,40.58
2019-03-30T17:44:09.657Z,40.70
2019-03-30T17:46:38.174Z,41.92
2019-03-30T17:49:06.749Z,42.27
2019-03-30T17:51:35.278Z,41.40
2019-03-30T17:54:03.785Z,43.68
2019-03-30T17:56:32.265Z,43.25
2019-03-30T17:59:00.746Z,42.70
2019-03-30T18:01:29.639Z,43.95
2019-03-30T18:03:58.131Z,45.92
2019-03-30T18:06:27.534Z,45.38
2019-03-30T18:08:56.107Z,45.67
2019-03-30T18:11:24.584Z,46.88
2019-03-30T18:13:53.377Z,48.78
2019-03-30T18:16:22.460Z,49.48
2019-03-30T18:18:51.328Z,47.15
2019-03-30T18:21:19.822Z,48.38
2019-03-30T18:23:48.543Z,48.15
2019-03-30T18:26:17.010Z,48.52
2019-03-30T18:28:45.568Z,50.90
2019-03-30T18:31:14.229Z,50.52
2019-03-30T18:33:43.173Z,52.27
2019-03-30T18:36:14.779Z,54.85
2019-03-30T18:38:47.275Z,54.15
2019-03-30T18:41:15.844Z,55.52
2019-03-30T18:43:44.492Z,56.68
2019-03-30T18:46:12.962Z,56.90
2019-03-30T18:48:41.551Z,56.45
2019-03-30T18:51:10.029Z,60.45
2019-03-30T18:53:38.863Z,63.60
2019-03-30T18:56:07.367Z,61.80
2019-03-30T18:58:41.833Z,62.00
2019-03-30T19:01:06.296Z,62.43
2019-03-30T19:03:34.773Z,62.70
2019-03-30T19:06:06.283Z,62.05
2019-03-30T19:08:34.851Z,62.80
2019-03-30T19:11:03.521Z,58.50
2019-03-30T19:13:32.509Z,56.48
2019-03-30T19:16:01.194Z,53.75
2019-03-30T19:18:29.731Z,54.00
2019-03-30T19:20:58.593Z,54.80
2019-03-30T19:23:27.095Z,55.30
2019-03-30T19:25:55.706Z,53.42
2019-03-30T19:28:24.343Z,54.67
2019-03-30T19:30:52.818Z,55.70
2019-03-30T19:33:21.318Z,55.08
2019-03-30T19:35:49.920Z,54.95
2019-03-30T19:38:18.395Z,54.48
2019-03-30T19:40:46.881Z,55.33
2019-03-30T19:43:15.672Z,56.42
2019-03-30T19:45:44.133Z,58.15
2019-03-30T19:48:12.855Z,58.23
2019-03-30T19:50:41.463Z,58.02
2019-03-30T19:53:09.926Z,57.30
2019-03-30T19:55:38.765Z,58.10
2019-03-30T19:58:07.570Z,59.45
2019-03-30T20:00:38.655Z,62.10
2019-03-30T20:03:06.407Z,62.30
2019-03-30T20:05:35.168Z,61.88
2019-03-30T20:08:12.096Z,60.00
2019-03-30T20:10:34.160Z,63.30
2019-03-30T20:13:02.835Z,68.65
2019-03-30T20:15:31.660Z,64.53
2019-03-30T20:18:00.174Z,66.42
2019-03-30T20:20:28.682Z,66.75
2019-03-30T20:22:57.160Z,69.35
2019-03-30T20:25:26.115Z,68.35
2019-03-30T20:27:55.069Z,67.78
2019-03-30T20:30:24.555Z,70.90
2019-03-30T20:32:53.196Z,68.83
2019-03-30T20:35:21.772Z,68.95
2019-03-30T20:37:50.248Z,66.47
2019-03-30T20:40:18.726Z,68.80
2019-03-30T20:42:47.333Z,70.45
2019-03-30T20:45:16.169Z,70.83
2019-03-30T20:47:44.725Z,72.10
2019-03-30T20:50:14.494Z,74.12
2019-03-30T20:52:42.969Z,75.15
2019-03-30T20:55:11.675Z,75.42
2019-03-30T20:57:40.213Z,76.02
2019-03-30T21:00:11.298Z,76.85
2019-03-30T21:02:39.768Z,74.40
2019-03-30T21:05:09.827Z,76.50
2019-03-30T21:07:41.659Z,73.83
2019-03-30T21:10:09.153Z,74.40
2019-03-30T21:12:37.739Z,75.95
2019-03-30T21:15:07.227Z,76.47
2019-03-30T21:17:35.978Z,76.97
2019-03-30T21:20:06.614Z,76.60
2019-03-30T21:22:35.105Z,75.00
2019-03-30T21:25:04.759Z,78.20
2019-03-30T21:27:33.348Z,80.22
2019-03-30T21:30:02.023Z,77.70
2019-03-30T21:32:30.481Z,77.42
2019-03-30T21:34:59.204Z,78.17
2019-03-30T21:37:27.822Z,79.70
2019-03-30T21:39:56.557Z,80.00
2019-03-30T21:42:25.281Z,79.62
2019-03-30T21:44:53.919Z,78.07
2019-03-30T21:47:22.398Z,78.05
2019-03-30T21:49:50.996Z,82.42
2019-03-30T21:52:19.466Z,77.80
2019-03-30T21:54:47.953Z,80.80
2019-03-30T21:57:16.568Z,79.22
2019-03-30T21:59:45.086Z,78.72
2019-03-30T22:02:13.537Z,79.85
2019-03-30T22:04:42.424Z,78.50
2019-03-30T22:07:11.325Z,76.70
2019-03-30T22:09:39.804Z,75.75
2019-03-30T22:12:08.332Z,77.72
2019-03-30T22:14:37.264Z,76.02
2019-03-30T22:17:05.733Z,76.90
2019-03-30T22:19:34.353Z,77.32
2019-03-30T22:22:03.019Z,73.37
2019-03-30T22:24:31.490Z,77.30
2019-03-30T22:26:59.998Z,78.65
2019-03-30T22:29:28.480Z,75.47
2019-03-30T22:31:56.965Z,78.75
2019-03-30T22:34:25.577Z,75.65
2019-03-30T22:36:54.051Z,80.53
2019-03-30T22:39:22.567Z,77.17
2019-03-30T22:41:51.128Z,73.05
2019-03-30T22:44:19.598Z,75.30
2019-03-30T22:46:48.097Z,77.92
2019-03-30T22:49:16.742Z,82.57
2019-03-30T22:51:45.210Z,80.40
2019-03-30T22:54:13.686Z,79.55
2019-03-30T22:56:42.492Z,80.25
2019-03-30T22:59:11.267Z,73.30
2019-03-30T23:01:40.365Z,74.15
2019-03-30T23:04:09.068Z,76.97
2019-03-30T23:06:37.550Z,73.85
2019-03-30T23:09:06.762Z,72.75
2019-03-30T23:11:35.566Z,71.40
2019-03-30T23:14:04.195Z,70.80
2019-03-30T23:16:32.746Z,70.62
2019-03-30T23:19:01.522Z,65.97
2019-03-30T23:21:30.027Z,64.77
2019-03-30T23:23:58.506Z,66.47
2019-03-30T23:26:27.082Z,62.60
2019-03-30T23:28:55.549Z,59.30
2019-03-30T23:31:24.054Z,52.78
2019-03-30T23:33:52.606Z,55.30
2019-03-30T23:36:21.346Z,53.25
2019-03-30T23:38:49.839Z,52.88
2019-03-30T23:41:18.515Z,55.15
2019-03-30T23:43:47.007Z,49.67
2019-03-30T23:46:15.518Z,49.60
2019-03-30T23:48:44.107Z,48.20
2019-03-30T23:51:12.833Z,45.10
2019-03-30T23:53:41.320Z,43.87
2019-03-30T23:56:22.308Z,43.70
2019-03-30T23:58:51.371Z,42.93
